sensor_id;sensor_type;location;lat;lon;timestamp;P1;durP1;ratioP1;P2;durP2;ratioP2
8411;SDS011;4243;49.296;11.348;2023-04-27T00:02:13;117.27;;;3.03;;
8411;SDS011;4243;49.296;11.348;2023-04-27T00:04:41;117.37;;;3.10;;
8411;SDS011;4243;49.296;11.348;2023-04-27T00:07:10;117.00;;;3.07;;
8411;SDS011;4243;49.296;11.348;2023-04-27T00:09:37;117.03;;;3.00;;
8411;SDS011;4243;49.296;11.348;2023-04-27T00:12:04;116.90;;;3.07;;
8411;SDS011;4243;49.296;11.348;2023-04-27T00:14:32;116.77;;;3.00;;
8411;SDS011;4243;49.296;11.348;2023-04-27T00:16:59;116.77;;;3.03;;
8411;SDS011;4243;49.296;11.348;2023-04-27T00:19:26;117.13;;;3.07;;
8411;SDS011;4243;49.296;11.348;2023-04-27T00:21:55;116.07;;;3.10;;
8411;SDS011;4243;49.296;11.348;2023-04-27T00:24:23;117.37;;;3.00;;
8411;SDS011;4243;49.296;11.348;2023-04-27T00:26:50;115.97;;;3.10;;
8411;SDS011;4243;49.296;11.348;2023-04-27T00:29:17;116.53;;;3.00;;
8411;SDS011;4243;49.296;11.348;2023-04-27T00:31:44;117.17;;;3.07;;
8411;SDS011;4243;49.296;11.348;2023-04-27T00:34:12;115.90;;;3.10;;
8411;SDS011;4243;49.296;11.348;2023-04-27T00:36:39;116.83;;;3.00;;
8411;SDS011;4243;49.296;11.348;2023-04-27T00:39:06;115.20;;;3.00;;
8411;SDS011;4243;49.296;11.348;2023-04-27T00:41:37;116.77;;;3.00;;
8411;SDS011;4243;49.296;11.348;2023-04-27T00:44:04;116.60;;;2.97;;
8411;SDS011;4243;49.296;11.348;2023-04-27T00:46:33;116.40;;;3.07;;
8411;SDS011;4243;49.296;11.348;2023-04-27T00:49:00;117.37;;;3.07;;
8411;SDS011;4243;49.296;11.348;2023-04-27T00:51:27;117.77;;;3.20;;
8411;SDS011;4243;49.296;11.348;2023-04-27T00:53:56;117.47;;;3.00;;
8411;SDS011;4243;49.296;11.348;2023-04-27T00:56:25;116.97;;;3.00;;
8411;SDS011;4243;49.296;11.348;2023-04-27T00:58:53;116.47;;;3.00;;
8411;SDS011;4243;49.296;11.348;2023-04-27T01:01:20;117.57;;;3.10;;
8411;SDS011;4243;49.296;11.348;2023-04-27T01:03:49;116.60;;;2.90;;
8411;SDS011;4243;49.296;11.348;2023-04-27T01:06:17;116.70;;;3.00;;
8411;SDS011;4243;49.296;11.348;2023-04-27T01:08:44;116.60;;;3.00;;
8411;SDS011;4243;49.296;11.348;2023-04-27T01:11:12;116.53;;;3.00;;
8411;SDS011;4243;49.296;11.348;2023-04-27T01:13:39;116.80;;;2.97;;
8411;SDS011;4243;49.296;11.348;2023-04-27T01:16:07;115.47;;;2.97;;
8411;SDS011;4243;49.296;11.348;2023-04-27T01:18:37;117.07;;;3.03;;
8411;SDS011;4243;49.296;11.348;2023-04-27T01:21:05;116.77;;;3.00;;
8411;SDS011;4243;49.296;11.348;2023-04-27T01:23:33;117.20;;;2.97;;
8411;SDS011;4243;49.296;11.348;2023-04-27T01:26:02;117.07;;;3.10;;
8411;SDS011;4243;49.296;11.348;2023-04-27T01:28:29;117.10;;;3.07;;
8411;SDS011;4243;49.296;11.348;2023-04-27T01:30:58;115.87;;;3.00;;
8411;SDS011;4243;49.296;11.348;2023-04-27T01:33:26;116.63;;;2.93;;
8411;SDS011;4243;49.296;11.348;2023-04-27T01:35:53;117.27;;;2.97;;
8411;SDS011;4243;49.296;11.348;2023-04-27T01:38:21;117.07;;;2.97;;
8411;SDS011;4243;49.296;11.348;2023-04-27T01:40:49;116.80;;;3.07;;
8411;SDS011;4243;49.296;11.348;2023-04-27T01:43:18;115.87;;;3.00;;
8411;SDS011;4243;49.296;11.348;2023-04-27T01:45:45;117.07;;;3.00;;
8411;SDS011;4243;49.296;11.348;2023-04-27T01:48:13;117.00;;;3.00;;
8411;SDS011;4243;49.296;11.348;2023-04-27T01:50:42;117.57;;;3.00;;
8411;SDS011;4243;49.296;11.348;2023-04-27T01:53:10;117.20;;;3.10;;
8411;SDS011;4243;49.296;11.348;2023-04-27T01:55:37;116.80;;;3.00;;
8411;SDS011;4243;49.296;11.348;2023-04-27T01:58:04;117.07;;;3.00;;
8411;SDS011;4243;49.296;11.348;2023-04-27T02:00:32;117.30;;;2.97;;
8411;SDS011;4243;49.296;11.348;2023-04-27T02:02:59;117.07;;;3.00;;
8411;SDS011;4243;49.296;11.348;2023-04-27T02:05:27;116.10;;;3.00;;
8411;SDS011;4243;49.296;11.348;2023-04-27T02:07:54;116.70;;;3.00;;
8411;SDS011;4243;49.296;11.348;2023-04-27T02:10:21;116.90;;;3.00;;
8411;SDS011;4243;49.296;11.348;2023-04-27T02:12:53;116.87;;;2.97;;
8411;SDS011;4243;49.296;11.348;2023-04-27T02:15:22;117.37;;;3.00;;
8411;SDS011;4243;49.296;11.348;2023-04-27T02:17:49;116.63;;;3.03;;
8411;SDS011;4243;49.296;11.348;2023-04-27T02:20:17;115.87;;;3.03;;
8411;SDS011;4243;49.296;11.348;2023-04-27T02:22:44;116.10;;;3.00;;
8411;SDS011;4243;49.296;11.348;2023-04-27T02:25:11;116.90;;;3.00;;
8411;SDS011;4243;49.296;11.348;2023-04-27T02:27:41;116.63;;;3.00;;
8411;SDS011;4243;49.296;11.348;2023-04-27T02:30:09;116.70;;;3.00;;
8411;SDS011;4243;49.296;11.348;2023-04-27T02:32:38;116.50;;;3.00;;
8411;SDS011;4243;49.296;11.348;2023-04-27T02:35:06;116.97;;;3.17;;
8411;SDS011;4243;49.296;11.348;2023-04-27T02:37:34;116.07;;;3.07;;
8411;SDS011;4243;49.296;11.348;2023-04-27T02:40:02;116.73;;;3.20;;
8411;SDS011;4243;49.296;11.348;2023-04-27T02:42:32;116.23;;;3.10;;
8411;SDS011;4243;49.296;11.348;2023-04-27T02:44:59;116.97;;;3.07;;
8411;SDS011;4243;49.296;11.348;2023-04-27T02:47:26;117.20;;;3.10;;
8411;SDS011;4243;49.296;11.348;2023-04-27T02:49:53;117.17;;;3.13;;
8411;SDS011;4243;49.296;11.348;2023-04-27T02:52:21;116.70;;;3.10;;
8411;SDS011;4243;49.296;11.348;2023-04-27T02:54:48;116.87;;;3.20;;
8411;SDS011;4243;49.296;11.348;2023-04-27T02:57:15;117.37;;;3.10;;
8411;SDS011;4243;49.296;11.348;2023-04-27T02:59:42;116.77;;;3.20;;
8411;SDS011;4243;49.296;11.348;2023-04-27T03:02:10;117.40;;;3.10;;
8411;SDS011;4243;49.296;11.348;2023-04-27T03:04:37;115.77;;;3.20;;
8411;SDS011;4243;49.296;11.348;2023-04-27T03:07:04;116.40;;;3.10;;
8411;SDS011;4243;49.296;11.348;2023-04-27T03:09:31;117.07;;;3.20;;
8411;SDS011;4243;49.296;11.348;2023-04-27T03:11:58;116.93;;;3.17;;
8411;SDS011;4243;49.296;11.348;2023-04-27T03:14:25;115.33;;;3.13;;
8411;SDS011;4243;49.296;11.348;2023-04-27T03:16:52;117.30;;;3.27;;
8411;SDS011;4243;49.296;11.348;2023-04-27T03:19:22;117.00;;;3.23;;
8411;SDS011;4243;49.296;11.348;2023-04-27T03:21:49;116.90;;;3.20;;
8411;SDS011;4243;49.296;11.348;2023-04-27T03:24:16;116.07;;;3.17;;
8411;SDS011;4243;49.296;11.348;2023-04-27T03:26:43;117.40;;;3.30;;
8411;SDS011;4243;49.296;11.348;2023-04-27T03:29:10;117.37;;;3.17;;
8411;SDS011;4243;49.296;11.348;2023-04-27T03:31:38;116.67;;;3.20;;
8411;SDS011;4243;49.296;11.348;2023-04-27T03:34:05;117.77;;;3.23;;
8411;SDS011;4243;49.296;11.348;2023-04-27T03:36:33;116.70;;;3.17;;
8411;SDS011;4243;49.296;11.348;2023-04-27T03:39:00;116.70;;;3.20;;
8411;SDS011;4243;49.296;11.348;2023-04-27T03:41:27;116.07;;;3.17;;
8411;SDS011;4243;49.296;11.348;2023-04-27T03:43:55;116.00;;;3.20;;
8411;SDS011;4243;49.296;11.348;2023-04-27T03:46:23;116.97;;;3.20;;
8411;SDS011;4243;49.296;11.348;2023-04-27T03:48:50;117.30;;;3.30;;
8411;SDS011;4243;49.296;11.348;2023-04-27T03:51:18;116.97;;;3.20;;
8411;SDS011;4243;49.296;11.348;2023-04-27T03:53:45;116.70;;;3.27;;
8411;SDS011;4243;49.296;11.348;2023-04-27T03:56:13;117.47;;;3.20;;
8411;SDS011;4243;49.296;11.348;2023-04-27T03:58:41;116.90;;;3.23;;
8411;SDS011;4243;49.296;11.348;2023-04-27T04:01:16;116.53;;;3.20;;
8411;SDS011;4243;49.296;11.348;2023-04-27T04:03:45;117.10;;;3.30;;
8411;SDS011;4243;49.296;11.348;2023-04-27T04:06:13;116.30;;;3.27;;
8411;SDS011;4243;49.296;11.348;2023-04-27T04:08:40;117.57;;;3.17;;
8411;SDS011;4243;49.296;11.348;2023-04-27T04:11:08;117.37;;;3.20;;
8411;SDS011;4243;49.296;11.348;2023-04-27T04:13:36;116.70;;;3.20;;
8411;SDS011;4243;49.296;11.348;2023-04-27T04:16:07;117.10;;;3.10;;
8411;SDS011;4243;49.296;11.348;2023-04-27T04:18:35;117.47;;;3.10;;
8411;SDS011;4243;49.296;11.348;2023-04-27T04:21:04;117.07;;;3.20;;
8411;SDS011;4243;49.296;11.348;2023-04-27T04:23:32;117.57;;;3.27;;
8411;SDS011;4243;49.296;11.348;2023-04-27T04:25:59;117.17;;;3.10;;
8411;SDS011;4243;49.296;11.348;2023-04-27T04:28:33;115.87;;;3.20;;
8411;SDS011;4243;49.296;11.348;2023-04-27T04:31:01;117.07;;;3.10;;
8411;SDS011;4243;49.296;11.348;2023-04-27T04:33:30;116.60;;;3.10;;
8411;SDS011;4243;49.296;11.348;2023-04-27T04:35:57;116.97;;;3.10;;
8411;SDS011;4243;49.296;11.348;2023-04-27T04:38:24;117.00;;;3.07;;
8411;SDS011;4243;49.296;11.348;2023-04-27T04:40:52;116.40;;;3.10;;
8411;SDS011;4243;49.296;11.348;2023-04-27T04:43:19;115.97;;;3.10;;
8411;SDS011;4243;49.296;11.348;2023-04-27T04:45:47;116.80;;;3.03;;
8411;SDS011;4243;49.296;11.348;2023-04-27T04:48:14;116.13;;;3.00;;
8411;SDS011;4243;49.296;11.348;2023-04-27T04:50:43;116.60;;;3.00;;
8411;SDS011;4243;49.296;11.348;2023-04-27T04:53:11;116.60;;;2.97;;
8411;SDS011;4243;49.296;11.348;2023-04-27T04:55:40;116.30;;;3.00;;
8411;SDS011;4243;49.296;11.348;2023-04-27T04:58:08;116.13;;;3.00;;
8411;SDS011;4243;49.296;11.348;2023-04-27T05:00:35;116.20;;;2.97;;
8411;SDS011;4243;49.296;11.348;2023-04-27T05:03:03;115.90;;;2.90;;
8411;SDS011;4243;49.296;11.348;2023-04-27T05:05:32;116.50;;;3.00;;
8411;SDS011;4243;49.296;11.348;2023-04-27T05:07:59;116.80;;;3.00;;
8411;SDS011;4243;49.296;11.348;2023-04-27T05:10:26;116.67;;;3.00;;
8411;SDS011;4243;49.296;11.348;2023-04-27T05:12:53;116.30;;;2.90;;
8411;SDS011;4243;49.296;11.348;2023-04-27T05:15:21;116.47;;;2.90;;
8411;SDS011;4243;49.296;11.348;2023-04-27T05:17:48;116.37;;;2.90;;
8411;SDS011;4243;49.296;11.348;2023-04-27T05:20:15;116.50;;;2.80;;
8411;SDS011;4243;49.296;11.348;2023-04-27T05:22:43;116.57;;;3.00;;
8411;SDS011;4243;49.296;11.348;2023-04-27T05:25:10;113.43;;;2.80;;
8411;SDS011;4243;49.296;11.348;2023-04-27T05:27:38;113.57;;;2.80;;
8411;SDS011;4243;49.296;11.348;2023-04-27T05:30:06;116.20;;;2.80;;
8411;SDS011;4243;49.296;11.348;2023-04-27T05:32:34;113.33;;;2.87;;
8411;SDS011;4243;49.296;11.348;2023-04-27T05:35:03;113.63;;;2.80;;
8411;SDS011;4243;49.296;11.348;2023-04-27T05:37:30;116.40;;;2.80;;
8411;SDS011;4243;49.296;11.348;2023-04-27T05:39:57;115.53;;;2.73;;
8411;SDS011;4243;49.296;11.348;2023-04-27T05:42:24;115.77;;;2.70;;
8411;SDS011;4243;49.296;11.348;2023-04-27T05:44:52;116.20;;;2.77;;
8411;SDS011;4243;49.296;11.348;2023-04-27T05:47:19;116.00;;;2.83;;
8411;SDS011;4243;49.296;11.348;2023-04-27T05:49:53;116.40;;;2.70;;
8411;SDS011;4243;49.296;11.348;2023-04-27T05:52:20;116.30;;;2.70;;
8411;SDS011;4243;49.296;11.348;2023-04-27T05:54:54;116.20;;;2.87;;
8411;SDS011;4243;49.296;11.348;2023-04-27T05:57:23;116.17;;;2.77;;
8411;SDS011;4243;49.296;11.348;2023-04-27T05:59:51;116.50;;;2.70;;
8411;SDS011;4243;49.296;11.348;2023-04-27T06:02:19;116.40;;;2.80;;
8411;SDS011;4243;49.296;11.348;2023-04-27T06:04:46;116.87;;;2.77;;
8411;SDS011;4243;49.296;11.348;2023-04-27T06:07:14;116.53;;;2.77;;
8411;SDS011;4243;49.296;11.348;2023-04-27T06:09:41;115.77;;;2.73;;
8411;SDS011;4243;49.296;11.348;2023-04-27T06:12:09;116.97;;;2.77;;
8411;SDS011;4243;49.296;11.348;2023-04-27T06:14:36;116.40;;;2.80;;
8411;SDS011;4243;49.296;11.348;2023-04-27T06:17:04;116.10;;;2.70;;
8411;SDS011;4243;49.296;11.348;2023-04-27T06:19:31;116.20;;;2.70;;
8411;SDS011;4243;49.296;11.348;2023-04-27T06:21:58;116.10;;;2.67;;
8411;SDS011;4243;49.296;11.348;2023-04-27T06:24:25;116.27;;;2.60;;
8411;SDS011;4243;49.296;11.348;2023-04-27T06:26:53;115.90;;;2.73;;
8411;SDS011;4243;49.296;11.348;2023-04-27T06:29:20;116.47;;;2.70;;
8411;SDS011;4243;49.296;11.348;2023-04-27T06:31:47;116.17;;;2.60;;
8411;SDS011;4243;49.296;11.348;2023-04-27T06:34:15;116.10;;;2.57;;
8411;SDS011;4243;49.296;11.348;2023-04-27T06:36:42;115.90;;;2.63;;
8411;SDS011;4243;49.296;11.348;2023-04-27T06:39:09;115.60;;;2.50;;
8411;SDS011;4243;49.296;11.348;2023-04-27T06:41:37;116.27;;;2.53;;
8411;SDS011;4243;49.296;11.348;2023-04-27T06:44:14;115.77;;;2.70;;
8411;SDS011;4243;49.296;11.348;2023-04-27T06:46:41;116.37;;;2.67;;
8411;SDS011;4243;49.296;11.348;2023-04-27T06:49:09;115.37;;;2.83;;
8411;SDS011;4243;49.296;11.348;2023-04-27T06:51:36;114.87;;;2.70;;
8411;SDS011;4243;49.296;11.348;2023-04-27T06:54:03;116.10;;;2.60;;
8411;SDS011;4243;49.296;11.348;2023-04-27T06:56:31;116.37;;;2.60;;
8411;SDS011;4243;49.296;11.348;2023-04-27T06:58:58;116.80;;;2.50;;
8411;SDS011;4243;49.296;11.348;2023-04-27T07:01:25;114.77;;;2.50;;
8411;SDS011;4243;49.296;11.348;2023-04-27T07:03:52;113.73;;;2.47;;
8411;SDS011;4243;49.296;11.348;2023-04-27T07:06:20;115.10;;;2.30;;
8411;SDS011;4243;49.296;11.348;2023-04-27T07:08:47;116.27;;;2.40;;
8411;SDS011;4243;49.296;11.348;2023-04-27T07:11:14;116.13;;;2.40;;
8411;SDS011;4243;49.296;11.348;2023-04-27T07:13:42;116.17;;;2.40;;
8411;SDS011;4243;49.296;11.348;2023-04-27T07:16:09;115.60;;;2.40;;
8411;SDS011;4243;49.296;11.348;2023-04-27T07:18:36;115.90;;;2.43;;
8411;SDS011;4243;49.296;11.348;2023-04-27T07:21:03;114.70;;;2.43;;
8411;SDS011;4243;49.296;11.348;2023-04-27T07:23:30;116.20;;;2.40;;
8411;SDS011;4243;49.296;11.348;2023-04-27T07:25:57;116.60;;;2.33;;
8411;SDS011;4243;49.296;11.348;2023-04-27T07:28:24;115.70;;;2.47;;
8411;SDS011;4243;49.296;11.348;2023-04-27T07:30:54;116.17;;;2.37;;
8411;SDS011;4243;49.296;11.348;2023-04-27T07:33:23;116.17;;;2.50;;
8411;SDS011;4243;49.296;11.348;2023-04-27T07:35:50;115.83;;;2.60;;
8411;SDS011;4243;49.296;11.348;2023-04-27T07:38:19;116.00;;;2.50;;
8411;SDS011;4243;49.296;11.348;2023-04-27T07:40:46;116.23;;;2.53;;
8411;SDS011;4243;49.296;11.348;2023-04-27T07:43:13;115.90;;;2.47;;
8411;SDS011;4243;49.296;11.348;2023-04-27T07:45:40;115.90;;;2.40;;
8411;SDS011;4243;49.296;11.348;2023-04-27T07:48:09;114.37;;;2.50;;
8411;SDS011;4243;49.296;11.348;2023-04-27T07:50:36;115.97;;;2.60;;
8411;SDS011;4243;49.296;11.348;2023-04-27T07:53:03;115.73;;;2.50;;
8411;SDS011;4243;49.296;11.348;2023-04-27T07:55:30;115.20;;;2.40;;
8411;SDS011;4243;49.296;11.348;2023-04-27T07:57:58;115.50;;;2.30;;
8411;SDS011;4243;49.296;11.348;2023-04-27T08:03:48;115.60;;;2.20;;
8411;SDS011;4243;49.296;11.348;2023-04-27T08:06:16;114.97;;;2.13;;
8411;SDS011;4243;49.296;11.348;2023-04-27T08:08:45;115.10;;;2.20;;
8411;SDS011;4243;49.296;11.348;2023-04-27T08:11:12;115.20;;;2.13;;
8411;SDS011;4243;49.296;11.348;2023-04-27T08:13:39;114.87;;;2.20;;
8411;SDS011;4243;49.296;11.348;2023-04-27T08:16:07;115.17;;;2.07;;
8411;SDS011;4243;49.296;11.348;2023-04-27T08:18:34;115.00;;;2.20;;
8411;SDS011;4243;49.296;11.348;2023-04-27T08:21:01;115.47;;;2.10;;
8411;SDS011;4243;49.296;11.348;2023-04-27T08:23:29;114.73;;;2.07;;
8411;SDS011;4243;49.296;11.348;2023-04-27T08:25:58;115.37;;;2.20;;
8411;SDS011;4243;49.296;11.348;2023-04-27T08:28:25;115.20;;;2.10;;
8411;SDS011;4243;49.296;11.348;2023-04-27T08:30:53;115.30;;;2.17;;
8411;SDS011;4243;49.296;11.348;2023-04-27T08:33:20;114.97;;;2.20;;
8411;SDS011;4243;49.296;11.348;2023-04-27T08:35:47;115.40;;;2.23;;
8411;SDS011;4243;49.296;11.348;2023-04-27T08:38:14;115.30;;;2.30;;
8411;SDS011;4243;49.296;11.348;2023-04-27T08:40:42;115.37;;;2.40;;
8411;SDS011;4243;49.296;11.348;2023-04-27T08:43:09;114.47;;;2.17;;
8411;SDS011;4243;49.296;11.348;2023-04-27T08:45:37;115.30;;;2.13;;
8411;SDS011;4243;49.296;11.348;2023-04-27T08:48:15;115.40;;;2.10;;
8411;SDS011;4243;49.296;11.348;2023-04-27T08:50:42;115.00;;;2.00;;
8411;SDS011;4243;49.296;11.348;2023-04-27T08:53:17;114.90;;;2.10;;
8411;SDS011;4243;49.296;11.348;2023-04-27T08:55:48;115.37;;;2.23;;
8411;SDS011;4243;49.296;11.348;2023-04-27T08:58:15;115.00;;;2.20;;
8411;SDS011;4243;49.296;11.348;2023-04-27T09:00:43;114.80;;;2.10;;
8411;SDS011;4243;49.296;11.348;2023-04-27T09:03:20;114.83;;;2.10;;
8411;SDS011;4243;49.296;11.348;2023-04-27T09:05:52;115.33;;;2.20;;
8411;SDS011;4243;49.296;11.348;2023-04-27T09:08:44;114.87;;;2.00;;
8411;SDS011;4243;49.296;11.348;2023-04-27T09:11:26;114.80;;;2.10;;
8411;SDS011;4243;49.296;11.348;2023-04-27T09:13:57;114.80;;;2.00;;
8411;SDS011;4243;49.296;11.348;2023-04-27T09:16:28;114.63;;;2.10;;
8411;SDS011;4243;49.296;11.348;2023-04-27T09:18:57;114.80;;;2.00;;
8411;SDS011;4243;49.296;11.348;2023-04-27T09:21:25;114.50;;;1.90;;
8411;SDS011;4243;49.296;11.348;2023-04-27T09:23:55;114.80;;;2.10;;
8411;SDS011;4243;49.296;11.348;2023-04-27T09:26:23;114.50;;;2.20;;
8411;SDS011;4243;49.296;11.348;2023-04-27T09:28:53;114.60;;;2.00;;
8411;SDS011;4243;49.296;11.348;2023-04-27T09:31:30;114.10;;;1.90;;
8411;SDS011;4243;49.296;11.348;2023-04-27T09:33:59;113.73;;;1.90;;
8411;SDS011;4243;49.296;11.348;2023-04-27T09:36:28;114.17;;;1.70;;
8411;SDS011;4243;49.296;11.348;2023-04-27T09:38:57;114.07;;;1.70;;
8411;SDS011;4243;49.296;11.348;2023-04-27T09:41:31;113.40;;;1.80;;
8411;SDS011;4243;49.296;11.348;2023-04-27T09:43:59;113.53;;;1.80;;
8411;SDS011;4243;49.296;11.348;2023-04-27T09:46:27;114.27;;;1.80;;
8411;SDS011;4243;49.296;11.348;2023-04-27T09:48:58;113.37;;;1.80;;
8411;SDS011;4243;49.296;11.348;2023-04-27T09:51:30;113.07;;;1.63;;
8411;SDS011;4243;49.296;11.348;2023-04-27T09:53:57;113.07;;;1.70;;
8411;SDS011;4243;49.296;11.348;2023-04-27T09:56:45;112.83;;;1.70;;
8411;SDS011;4243;49.296;11.348;2023-04-27T10:03:05;112.17;;;1.40;;
8411;SDS011;4243;49.296;11.348;2023-04-27T10:06:18;112.90;;;1.50;;
8411;SDS011;4243;49.296;11.348;2023-04-27T10:09:33;114.07;;;1.80;;
8411;SDS011;4243;49.296;11.348;2023-04-27T10:12:13;114.27;;;1.77;;
8411;SDS011;4243;49.296;11.348;2023-04-27T10:14:53;114.23;;;2.03;;
8411;SDS011;4243;49.296;11.348;2023-04-27T10:17:31;114.80;;;2.00;;
8411;SDS011;4243;49.296;11.348;2023-04-27T10:20:02;114.90;;;2.10;;
8411;SDS011;4243;49.296;11.348;2023-04-27T10:25:21;115.00;;;2.10;;
8411;SDS011;4243;49.296;11.348;2023-04-27T10:27:56;115.13;;;2.10;;
8411;SDS011;4243;49.296;11.348;2023-04-27T10:30:30;114.30;;;2.07;;
8411;SDS011;4243;49.296;11.348;2023-04-27T10:33:04;113.50;;;1.90;;
8411;SDS011;4243;49.296;11.348;2023-04-27T10:35:38;112.80;;;1.87;;
8411;SDS011;4243;49.296;11.348;2023-04-27T10:43:28;114.23;;;2.10;;
8411;SDS011;4243;49.296;11.348;2023-04-27T10:46:09;114.37;;;1.87;;
8411;SDS011;4243;49.296;11.348;2023-04-27T10:48:41;114.80;;;1.80;;
8411;SDS011;4243;49.296;11.348;2023-04-27T10:51:14;114.53;;;2.00;;
8411;SDS011;4243;49.296;11.348;2023-04-27T10:53:43;114.60;;;2.00;;
8411;SDS011;4243;49.296;11.348;2023-04-27T10:56:10;114.87;;;1.93;;
8411;SDS011;4243;49.296;11.348;2023-04-27T10:58:38;114.97;;;2.03;;
8411;SDS011;4243;49.296;11.348;2023-04-27T11:01:24;114.30;;;1.90;;
8411;SDS011;4243;49.296;11.348;2023-04-27T11:03:55;114.57;;;2.00;;
8411;SDS011;4243;49.296;11.348;2023-04-27T11:06:27;114.40;;;1.80;;
8411;SDS011;4243;49.296;11.348;2023-04-27T11:08:55;114.57;;;1.87;;
8411;SDS011;4243;49.296;11.348;2023-04-27T11:11:22;113.40;;;1.90;;
8411;SDS011;4243;49.296;11.348;2023-04-27T11:13:51;114.07;;;2.07;;
8411;SDS011;4243;49.296;11.348;2023-04-27T11:16:21;113.73;;;2.10;;
8411;SDS011;4243;49.296;11.348;2023-04-27T11:18:49;113.20;;;1.73;;
8411;SDS011;4243;49.296;11.348;2023-04-27T11:21:17;111.97;;;1.60;;
8411;SDS011;4243;49.296;11.348;2023-04-27T11:23:46;110.20;;;1.70;;
8411;SDS011;4243;49.296;11.348;2023-04-27T11:26:17;110.90;;;1.63;;
8411;SDS011;4243;49.296;11.348;2023-04-27T11:29:04;111.27;;;1.53;;
8411;SDS011;4243;49.296;11.348;2023-04-27T11:31:38;110.77;;;1.50;;
8411;SDS011;4243;49.296;11.348;2023-04-27T11:34:18;110.17;;;1.70;;
8411;SDS011;4243;49.296;11.348;2023-04-27T11:36:58;110.53;;;2.00;;
8411;SDS011;4243;49.296;11.348;2023-04-27T11:39:35;110.50;;;2.20;;
8411;SDS011;4243;49.296;11.348;2023-04-27T11:42:25;111.70;;;2.10;;
8411;SDS011;4243;49.296;11.348;2023-04-27T11:47:32;113.27;;;1.60;;
8411;SDS011;4243;49.296;11.348;2023-04-27T11:50:06;113.47;;;1.70;;
8411;SDS011;4243;49.296;11.348;2023-04-27T11:52:35;113.57;;;1.60;;
8411;SDS011;4243;49.296;11.348;2023-04-27T11:55:05;112.60;;;1.60;;
8411;SDS011;4243;49.296;11.348;2023-04-27T11:57:40;112.60;;;1.53;;
8411;SDS011;4243;49.296;11.348;2023-04-27T12:00:15;113.00;;;1.60;;
8411;SDS011;4243;49.296;11.348;2023-04-27T12:02:43;112.50;;;1.70;;
8411;SDS011;4243;49.296;11.348;2023-04-27T12:05:11;113.07;;;1.60;;
8411;SDS011;4243;49.296;11.348;2023-04-27T12:07:40;113.37;;;1.60;;
8411;SDS011;4243;49.296;11.348;2023-04-27T12:10:08;113.47;;;1.70;;
8411;SDS011;4243;49.296;11.348;2023-04-27T12:12:36;114.07;;;1.67;;
8411;SDS011;4243;49.296;11.348;2023-04-27T12:15:04;113.63;;;1.90;;
8411;SDS011;4243;49.296;11.348;2023-04-27T12:17:33;114.77;;;1.90;;
8411;SDS011;4243;49.296;11.348;2023-04-27T12:20:01;114.27;;;2.00;;
8411;SDS011;4243;49.296;11.348;2023-04-27T12:22:28;113.93;;;1.97;;
8411;SDS011;4243;49.296;11.348;2023-04-27T12:24:55;114.37;;;2.00;;
8411;SDS011;4243;49.296;11.348;2023-04-27T12:27:22;114.10;;;2.00;;
8411;SDS011;4243;49.296;11.348;2023-04-27T12:29:51;113.97;;;2.03;;
8411;SDS011;4243;49.296;11.348;2023-04-27T12:32:23;114.20;;;1.93;;
8411;SDS011;4243;49.296;11.348;2023-04-27T12:34:50;114.60;;;1.87;;
8411;SDS011;4243;49.296;11.348;2023-04-27T12:37:18;113.97;;;1.87;;
8411;SDS011;4243;49.296;11.348;2023-04-27T12:39:46;114.20;;;2.00;;
8411;SDS011;4243;49.296;11.348;2023-04-27T12:42:13;114.17;;;2.03;;
8411;SDS011;4243;49.296;11.348;2023-04-27T12:44:42;114.67;;;2.00;;
8411;SDS011;4243;49.296;11.348;2023-04-27T12:47:09;114.67;;;1.90;;
8411;SDS011;4243;49.296;11.348;2023-04-27T12:49:42;115.00;;;1.90;;
8411;SDS011;4243;49.296;11.348;2023-04-27T12:52:10;114.90;;;2.00;;
8411;SDS011;4243;49.296;11.348;2023-04-27T12:54:38;115.40;;;2.00;;
8411;SDS011;4243;49.296;11.348;2023-04-27T12:57:05;115.43;;;1.90;;
8411;SDS011;4243;49.296;11.348;2023-04-27T12:59:32;115.27;;;1.97;;
8411;SDS011;4243;49.296;11.348;2023-04-27T13:02:00;114.90;;;2.07;;
8411;SDS011;4243;49.296;11.348;2023-04-27T13:04:29;115.20;;;2.07;;
8411;SDS011;4243;49.296;11.348;2023-04-27T13:06:57;115.40;;;1.97;;
8411;SDS011;4243;49.296;11.348;2023-04-27T13:09:28;114.60;;;2.00;;
8411;SDS011;4243;49.296;11.348;2023-04-27T13:11:55;114.77;;;2.00;;
8411;SDS011;4243;49.296;11.348;2023-04-27T13:14:26;114.97;;;2.03;;
8411;SDS011;4243;49.296;11.348;2023-04-27T13:16:54;115.50;;;2.10;;
8411;SDS011;4243;49.296;11.348;2023-04-27T13:19:21;114.97;;;2.00;;
8411;SDS011;4243;49.296;11.348;2023-04-27T13:21:48;115.07;;;2.20;;
8411;SDS011;4243;49.296;11.348;2023-04-27T13:24:16;115.20;;;2.07;;
8411;SDS011;4243;49.296;11.348;2023-04-27T13:26:43;115.50;;;1.97;;
8411;SDS011;4243;49.296;11.348;2023-04-27T13:29:11;115.20;;;2.00;;
8411;SDS011;4243;49.296;11.348;2023-04-27T13:31:38;115.57;;;1.90;;
8411;SDS011;4243;49.296;11.348;2023-04-27T13:34:06;115.40;;;2.10;;
8411;SDS011;4243;49.296;11.348;2023-04-27T13:36:34;115.37;;;2.07;;
8411;SDS011;4243;49.296;11.348;2023-04-27T13:39:01;116.77;;;2.57;;
8411;SDS011;4243;49.296;11.348;2023-04-27T13:41:30;115.57;;;2.13;;
8411;SDS011;4243;49.296;11.348;2023-04-27T13:43:57;115.87;;;1.97;;
8411;SDS011;4243;49.296;11.348;2023-04-27T13:46:24;115.27;;;1.97;;
8411;SDS011;4243;49.296;11.348;2023-04-27T13:48:52;114.37;;;1.93;;
8411;SDS011;4243;49.296;11.348;2023-04-27T13:51:19;115.17;;;2.13;;
8411;SDS011;4243;49.296;11.348;2023-04-27T13:53:46;115.23;;;2.03;;
8411;SDS011;4243;49.296;11.348;2023-04-27T13:56:13;115.03;;;2.10;;
8411;SDS011;4243;49.296;11.348;2023-04-27T13:58:41;115.27;;;2.10;;
8411;SDS011;4243;49.296;11.348;2023-04-27T14:01:07;115.10;;;2.00;;
8411;SDS011;4243;49.296;11.348;2023-04-27T14:03:35;115.60;;;2.00;;
8411;SDS011;4243;49.296;11.348;2023-04-27T14:06:02;115.67;;;2.00;;
8411;SDS011;4243;49.296;11.348;2023-04-27T14:08:31;115.67;;;2.10;;
8411;SDS011;4243;49.296;11.348;2023-04-27T14:10:59;115.23;;;2.00;;
8411;SDS011;4243;49.296;11.348;2023-04-27T14:13:27;115.60;;;2.10;;
8411;SDS011;4243;49.296;11.348;2023-04-27T14:15:54;115.50;;;2.20;;
8411;SDS011;4243;49.296;11.348;2023-04-27T14:18:22;115.30;;;2.20;;
8411;SDS011;4243;49.296;11.348;2023-04-27T14:20:57;116.00;;;2.20;;
8411;SDS011;4243;49.296;11.348;2023-04-27T14:23:25;116.20;;;2.20;;
8411;SDS011;4243;49.296;11.348;2023-04-27T14:25:52;116.00;;;2.20;;
8411;SDS011;4243;49.296;11.348;2023-04-27T14:28:19;116.37;;;2.10;;
8411;SDS011;4243;49.296;11.348;2023-04-27T14:30:47;115.80;;;2.10;;
8411;SDS011;4243;49.296;11.348;2023-04-27T14:33:14;115.60;;;2.03;;
8411;SDS011;4243;49.296;11.348;2023-04-27T14:35:41;115.77;;;2.00;;
8411;SDS011;4243;49.296;11.348;2023-04-27T14:38:09;115.77;;;2.10;;
8411;SDS011;4243;49.296;11.348;2023-04-27T14:40:36;115.37;;;2.10;;
8411;SDS011;4243;49.296;11.348;2023-04-27T14:43:03;115.47;;;2.13;;
8411;SDS011;4243;49.296;11.348;2023-04-27T14:45:31;115.37;;;1.90;;
8411;SDS011;4243;49.296;11.348;2023-04-27T14:48:13;114.77;;;2.03;;
8411;SDS011;4243;49.296;11.348;2023-04-27T14:50:40;115.07;;;2.00;;
8411;SDS011;4243;49.296;11.348;2023-04-27T14:53:07;114.87;;;2.00;;
8411;SDS011;4243;49.296;11.348;2023-04-27T14:55:35;115.17;;;2.10;;
8411;SDS011;4243;49.296;11.348;2023-04-27T14:58:02;114.97;;;2.00;;
8411;SDS011;4243;49.296;11.348;2023-04-27T15:00:29;114.87;;;2.00;;
8411;SDS011;4243;49.296;11.348;2023-04-27T15:02:56;115.07;;;2.00;;